Structure, Texas
Current Conditions -  °F | °C
As of 2:55 PM on Thursday 20 Nov 2014 (Local Time) from KEDC Reporting Station
Overcast Overcast  
Wind Chill: 68°   Ceiling: 2600
Heat Index: 68°   Visibility: 10mi
Dew Point: 59°   Wind: 9mph
Humidity: 73%   Direction: 190°S
Pressure: 30.04"   Gusts: NA
Location:  30.2988°N, 97.3874°W
Report Text: KEDC 202055Z AUTO 19008KT 10SM BKN026 BKN033 OVC041 20/15 A3004 RMK AO2
Loading
Personal Weather Stations






























Interactive Weather Map New forecast layout! Learn more

10-Day Weather Forecast

Advertisements
Track Severe Weather on mobile